sensor_id;sensor_type;location;lat;lon;timestamp;P1;durP1;ratioP1;P2;durP2;ratioP2
57824;SDS011;43912;44.188;21.094;2022-11-25T00:01:17;22.80;;;14.23;;
57824;SDS011;43912;44.188;21.094;2022-11-25T00:03:43;22.17;;;13.70;;
57824;SDS011;43912;44.188;21.094;2022-11-25T00:08:39;28.25;;;18.20;;
57824;SDS011;43912;44.188;21.094;2022-11-25T00:11:05;23.00;;;15.70;;
57824;SDS011;43912;44.188;21.094;2022-11-25T00:13:32;20.27;;;14.15;;
57824;SDS011;43912;44.188;21.094;2022-11-25T00:16:08;20.38;;;13.40;;
57824;SDS011;43912;44.188;21.094;2022-11-25T00:18:34;18.52;;;12.85;;
57824;SDS011;43912;44.188;21.094;2022-11-25T00:21:04;20.05;;;14.13;;
57824;SDS011;43912;44.188;21.094;2022-11-25T00:23:31;25.10;;;13.23;;
57824;SDS011;43912;44.188;21.094;2022-11-25T00:25:57;19.00;;;13.65;;
57824;SDS011;43912;44.188;21.094;2022-11-25T00:28:23;24.05;;;16.27;;
57824;SDS011;43912;44.188;21.094;2022-11-25T00:30:49;27.85;;;17.98;;
57824;SDS011;43912;44.188;21.094;2022-11-25T00:33:15;23.77;;;16.52;;
57824;SDS011;43912;44.188;21.094;2022-11-25T00:35:42;28.75;;;19.98;;
57824;SDS011;43912;44.188;21.094;2022-11-25T00:38:08;41.10;;;26.45;;
57824;SDS011;43912;44.188;21.094;2022-11-25T00:40:34;36.53;;;22.55;;
57824;SDS011;43912;44.188;21.094;2022-11-25T00:43:00;32.20;;;19.80;;
57824;SDS011;43912;44.188;21.094;2022-11-25T00:45:44;23.50;;;15.77;;
57824;SDS011;43912;44.188;21.094;2022-11-25T00:48:10;18.50;;;12.15;;
57824;SDS011;43912;44.188;21.094;2022-11-25T00:50:37;15.65;;;11.32;;
57824;SDS011;43912;44.188;21.094;2022-11-25T00:53:03;17.67;;;10.82;;
57824;SDS011;43912;44.188;21.094;2022-11-25T00:55:29;13.40;;;9.38;;
57824;SDS011;43912;44.188;21.094;2022-11-25T00:58:14;16.00;;;10.18;;
57824;SDS011;43912;44.188;21.094;2022-11-25T01:00:40;15.15;;;11.43;;
57824;SDS011;43912;44.188;21.094;2022-11-25T01:03:06;20.60;;;14.95;;
57824;SDS011;43912;44.188;21.094;2022-11-25T01:05:32;13.50;;;10.15;;
57824;SDS011;43912;44.188;21.094;2022-11-25T01:07:58;15.75;;;9.98;;
57824;SDS011;43912;44.188;21.094;2022-11-25T01:10:24;14.07;;;9.75;;
57824;SDS011;43912;44.188;21.094;2022-11-25T01:12:50;16.23;;;10.85;;
57824;SDS011;43912;44.188;21.094;2022-11-25T01:15:16;14.50;;;9.60;;
57824;SDS011;43912;44.188;21.094;2022-11-25T01:17:43;15.43;;;9.25;;
57824;SDS011;43912;44.188;21.094;2022-11-25T01:20:09;13.18;;;9.20;;
57824;SDS011;43912;44.188;21.094;2022-11-25T01:22:35;13.75;;;10.70;;
57824;SDS011;43912;44.188;21.094;2022-11-25T01:25:01;15.40;;;9.50;;
57824;SDS011;43912;44.188;21.094;2022-11-25T01:27:27;14.75;;;9.77;;
57824;SDS011;43912;44.188;21.094;2022-11-25T01:29:53;14.35;;;10.13;;
57824;SDS011;43912;44.188;21.094;2022-11-25T01:32:19;14.15;;;9.63;;
57824;SDS011;43912;44.188;21.094;2022-11-25T01:34:45;15.27;;;9.27;;
57824;SDS011;43912;44.188;21.094;2022-11-25T01:37:11;14.63;;;10.32;;
57824;SDS011;43912;44.188;21.094;2022-11-25T01:39:37;13.77;;;9.43;;
57824;SDS011;43912;44.188;21.094;2022-11-25T01:42:04;14.38;;;9.80;;
57824;SDS011;43912;44.188;21.094;2022-11-25T01:44:30;13.00;;;9.15;;
57824;SDS011;43912;44.188;21.094;2022-11-25T01:52:04;20.42;;;13.95;;
57824;SDS011;43912;44.188;21.094;2022-11-25T01:54:32;56.13;;;30.45;;
57824;SDS011;43912;44.188;21.094;2022-11-25T01:57:02;51.10;;;31.33;;
57824;SDS011;43912;44.188;21.094;2022-11-25T01:59:30;64.13;;;38.67;;
57824;SDS011;43912;44.188;21.094;2022-11-25T02:01:57;61.65;;;36.47;;
57824;SDS011;43912;44.188;21.094;2022-11-25T02:04:24;48.67;;;28.92;;
57824;SDS011;43912;44.188;21.094;2022-11-25T02:06:55;43.15;;;27.88;;
57824;SDS011;43912;44.188;21.094;2022-11-25T02:09:22;42.42;;;26.67;;
57824;SDS011;43912;44.188;21.094;2022-11-25T02:11:48;36.95;;;23.10;;
57824;SDS011;43912;44.188;21.094;2022-11-25T02:14:16;26.75;;;17.38;;
57824;SDS011;43912;44.188;21.094;2022-11-25T02:16:42;23.70;;;17.23;;
57824;SDS011;43912;44.188;21.094;2022-11-25T02:19:11;24.05;;;16.90;;
57824;SDS011;43912;44.188;21.094;2022-11-25T02:21:42;26.40;;;18.42;;
57824;SDS011;43912;44.188;21.094;2022-11-25T02:24:32;24.70;;;16.20;;
57824;SDS011;43912;44.188;21.094;2022-11-25T02:26:56;22.38;;;16.35;;
57824;SDS011;43912;44.188;21.094;2022-11-25T02:29:23;22.38;;;16.02;;
57824;SDS011;43912;44.188;21.094;2022-11-25T02:31:50;23.98;;;17.05;;
57824;SDS011;43912;44.188;21.094;2022-11-25T02:34:16;19.10;;;13.65;;
57824;SDS011;43912;44.188;21.094;2022-11-25T02:36:42;25.40;;;19.92;;
57824;SDS011;43912;44.188;21.094;2022-11-25T02:39:08;23.85;;;16.60;;
57824;SDS011;43912;44.188;21.094;2022-11-25T02:41:45;21.45;;;16.55;;
57824;SDS011;43912;44.188;21.094;2022-11-25T02:44:12;19.08;;;14.70;;
57824;SDS011;43912;44.188;21.094;2022-11-25T02:46:38;23.42;;;17.10;;
57824;SDS011;43912;44.188;21.094;2022-11-25T02:49:04;21.40;;;15.30;;
57824;SDS011;43912;44.188;21.094;2022-11-25T02:51:31;19.45;;;15.35;;
57824;SDS011;43912;44.188;21.094;2022-11-25T02:53:58;18.60;;;14.57;;
57824;SDS011;43912;44.188;21.094;2022-11-25T02:56:26;21.65;;;17.30;;
57824;SDS011;43912;44.188;21.094;2022-11-25T02:58:53;21.50;;;16.23;;
57824;SDS011;43912;44.188;21.094;2022-11-25T03:01:19;26.73;;;20.00;;
57824;SDS011;43912;44.188;21.094;2022-11-25T03:03:45;22.55;;;16.65;;
57824;SDS011;43912;44.188;21.094;2022-11-25T03:06:11;20.33;;;14.73;;
57824;SDS011;43912;44.188;21.094;2022-11-25T03:08:37;18.50;;;15.10;;
57824;SDS011;43912;44.188;21.094;2022-11-25T03:11:04;23.42;;;16.50;;
57824;SDS011;43912;44.188;21.094;2022-11-25T03:13:30;19.38;;;14.40;;
57824;SDS011;43912;44.188;21.094;2022-11-25T03:15:56;18.67;;;13.35;;
57824;SDS011;43912;44.188;21.094;2022-11-25T03:18:22;17.00;;;13.57;;
57824;SDS011;43912;44.188;21.094;2022-11-25T03:20:52;17.35;;;14.32;;
57824;SDS011;43912;44.188;21.094;2022-11-25T03:23:18;18.70;;;15.82;;
57824;SDS011;43912;44.188;21.094;2022-11-25T03:25:44;19.63;;;13.57;;
57824;SDS011;43912;44.188;21.094;2022-11-25T03:28:10;18.27;;;14.90;;
57824;SDS011;43912;44.188;21.094;2022-11-25T03:30:36;18.35;;;14.50;;
57824;SDS011;43912;44.188;21.094;2022-11-25T03:33:02;21.55;;;16.35;;
57824;SDS011;43912;44.188;21.094;2022-11-25T03:35:29;18.95;;;13.75;;
57824;SDS011;43912;44.188;21.094;2022-11-25T03:37:55;21.38;;;16.23;;
57824;SDS011;43912;44.188;21.094;2022-11-25T03:40:21;16.90;;;13.50;;
57824;SDS011;43912;44.188;21.094;2022-11-25T03:42:48;19.85;;;15.07;;
57824;SDS011;43912;44.188;21.094;2022-11-25T03:45:14;17.45;;;12.98;;
57824;SDS011;43912;44.188;21.094;2022-11-25T03:47:41;20.20;;;14.30;;
57824;SDS011;43912;44.188;21.094;2022-11-25T03:50:08;17.70;;;13.27;;
57824;SDS011;43912;44.188;21.094;2022-11-25T03:52:34;18.00;;;13.68;;
57824;SDS011;43912;44.188;21.094;2022-11-25T03:55:01;20.02;;;14.60;;
57824;SDS011;43912;44.188;21.094;2022-11-25T03:57:27;20.88;;;13.88;;
57824;SDS011;43912;44.188;21.094;2022-11-25T03:59:53;17.40;;;12.70;;
57824;SDS011;43912;44.188;21.094;2022-11-25T04:02:19;17.05;;;12.73;;
57824;SDS011;43912;44.188;21.094;2022-11-25T04:04:45;18.10;;;13.05;;
57824;SDS011;43912;44.188;21.094;2022-11-25T04:07:11;18.73;;;13.32;;
57824;SDS011;43912;44.188;21.094;2022-11-25T04:09:37;18.10;;;12.82;;
57824;SDS011;43912;44.188;21.094;2022-11-25T04:12:03;21.92;;;14.98;;
57824;SDS011;43912;44.188;21.094;2022-11-25T04:14:48;17.25;;;13.00;;
57824;SDS011;43912;44.188;21.094;2022-11-25T04:17:14;19.40;;;13.38;;
57824;SDS011;43912;44.188;21.094;2022-11-25T04:19:41;16.15;;;12.30;;
57824;SDS011;43912;44.188;21.094;2022-11-25T04:22:07;16.73;;;12.45;;
57824;SDS011;43912;44.188;21.094;2022-11-25T04:24:33;17.55;;;13.40;;
57824;SDS011;43912;44.188;21.094;2022-11-25T04:26:59;16.92;;;11.77;;
57824;SDS011;43912;44.188;21.094;2022-11-25T04:29:25;17.88;;;11.93;;
57824;SDS011;43912;44.188;21.094;2022-11-25T04:31:52;18.90;;;12.50;;
57824;SDS011;43912;44.188;21.094;2022-11-25T04:34:18;16.67;;;12.73;;
57824;SDS011;43912;44.188;21.094;2022-11-25T04:36:44;16.63;;;11.90;;
57824;SDS011;43912;44.188;21.094;2022-11-25T04:39:10;18.25;;;13.10;;
57824;SDS011;43912;44.188;21.094;2022-11-25T04:41:36;19.00;;;13.25;;
57824;SDS011;43912;44.188;21.094;2022-11-25T04:44:02;18.15;;;13.25;;
57824;SDS011;43912;44.188;21.094;2022-11-25T04:46:33;18.92;;;13.32;;
57824;SDS011;43912;44.188;21.094;2022-11-25T04:49:01;20.35;;;14.68;;
57824;SDS011;43912;44.188;21.094;2022-11-25T04:51:27;19.95;;;14.40;;
57824;SDS011;43912;44.188;21.094;2022-11-25T04:53:53;21.02;;;15.85;;
57824;SDS011;43912;44.188;21.094;2022-11-25T04:56:19;18.58;;;14.48;;
57824;SDS011;43912;44.188;21.094;2022-11-25T04:58:45;19.67;;;14.30;;
57824;SDS011;43912;44.188;21.094;2022-11-25T05:01:30;18.90;;;14.98;;
57824;SDS011;43912;44.188;21.094;2022-11-25T05:03:56;18.88;;;14.30;;
57824;SDS011;43912;44.188;21.094;2022-11-25T05:06:23;20.15;;;15.25;;
57824;SDS011;43912;44.188;21.094;2022-11-25T05:08:49;18.33;;;14.82;;
57824;SDS011;43912;44.188;21.094;2022-11-25T05:11:15;21.60;;;16.00;;
57824;SDS011;43912;44.188;21.094;2022-11-25T05:13:41;20.40;;;16.00;;
57824;SDS011;43912;44.188;21.094;2022-11-25T05:16:07;21.60;;;15.38;;
57824;SDS011;43912;44.188;21.094;2022-11-25T05:18:33;18.58;;;14.85;;
57824;SDS011;43912;44.188;21.094;2022-11-25T05:21:00;20.02;;;15.32;;
57824;SDS011;43912;44.188;21.094;2022-11-25T05:23:26;22.33;;;17.02;;
57824;SDS011;43912;44.188;21.094;2022-11-25T05:25:57;24.38;;;17.90;;
57824;SDS011;43912;44.188;21.094;2022-11-25T05:28:23;22.05;;;17.17;;
57824;SDS011;43912;44.188;21.094;2022-11-25T05:30:49;27.17;;;19.38;;
57824;SDS011;43912;44.188;21.094;2022-11-25T05:33:15;22.60;;;16.48;;
57824;SDS011;43912;44.188;21.094;2022-11-25T05:35:41;22.95;;;17.20;;
57824;SDS011;43912;44.188;21.094;2022-11-25T05:38:07;23.33;;;17.02;;
57824;SDS011;43912;44.188;21.094;2022-11-25T05:40:33;20.73;;;16.42;;
57824;SDS011;43912;44.188;21.094;2022-11-25T05:43:00;23.67;;;18.45;;
57824;SDS011;43912;44.188;21.094;2022-11-25T05:45:26;29.15;;;22.58;;
57824;SDS011;43912;44.188;21.094;2022-11-25T05:47:52;27.63;;;21.63;;
57824;SDS011;43912;44.188;21.094;2022-11-25T05:50:19;29.27;;;23.67;;
57824;SDS011;43912;44.188;21.094;2022-11-25T05:52:45;28.17;;;22.85;;
57824;SDS011;43912;44.188;21.094;2022-11-25T05:55:11;26.27;;;19.95;;
57824;SDS011;43912;44.188;21.094;2022-11-25T05:57:37;22.95;;;18.77;;
57824;SDS011;43912;44.188;21.094;2022-11-25T06:00:04;21.98;;;16.65;;
57824;SDS011;43912;44.188;21.094;2022-11-25T06:02:30;24.88;;;16.48;;
57824;SDS011;43912;44.188;21.094;2022-11-25T06:04:56;23.10;;;18.15;;
57824;SDS011;43912;44.188;21.094;2022-11-25T06:07:22;24.63;;;17.15;;
57824;SDS011;43912;44.188;21.094;2022-11-25T06:09:49;24.25;;;16.92;;
57824;SDS011;43912;44.188;21.094;2022-11-25T06:12:15;29.52;;;20.20;;
57824;SDS011;43912;44.188;21.094;2022-11-25T06:14:41;29.65;;;22.67;;
57824;SDS011;43912;44.188;21.094;2022-11-25T06:17:07;47.28;;;39.22;;
57824;SDS011;43912;44.188;21.094;2022-11-25T06:19:33;28.67;;;24.38;;
57824;SDS011;43912;44.188;21.094;2022-11-25T06:21:59;36.33;;;28.20;;
57824;SDS011;43912;44.188;21.094;2022-11-25T06:24:25;29.33;;;23.63;;
57824;SDS011;43912;44.188;21.094;2022-11-25T06:26:51;29.05;;;23.60;;
57824;SDS011;43912;44.188;21.094;2022-11-25T06:29:17;29.25;;;22.13;;
57824;SDS011;43912;44.188;21.094;2022-11-25T06:31:43;25.20;;;19.90;;
57824;SDS011;43912;44.188;21.094;2022-11-25T06:34:09;28.40;;;20.00;;
57824;SDS011;43912;44.188;21.094;2022-11-25T06:36:35;28.15;;;21.30;;
57824;SDS011;43912;44.188;21.094;2022-11-25T06:39:01;42.13;;;27.50;;
57824;SDS011;43912;44.188;21.094;2022-11-25T06:41:28;40.55;;;27.45;;
57824;SDS011;43912;44.188;21.094;2022-11-25T06:43:54;43.65;;;33.15;;
57824;SDS011;43912;44.188;21.094;2022-11-25T06:46:20;35.10;;;27.42;;
57824;SDS011;43912;44.188;21.094;2022-11-25T06:48:46;27.40;;;21.65;;
57824;SDS011;43912;44.188;21.094;2022-11-25T06:51:13;31.25;;;22.67;;
57824;SDS011;43912;44.188;21.094;2022-11-25T06:53:39;55.67;;;31.63;;
57824;SDS011;43912;44.188;21.094;2022-11-25T06:56:10;51.38;;;31.05;;
57824;SDS011;43912;44.188;21.094;2022-11-25T06:58:37;65.78;;;38.67;;
57824;SDS011;43912;44.188;21.094;2022-11-25T07:03:35;30.17;;;23.60;;
57824;SDS011;43912;44.188;21.094;2022-11-25T07:06:02;30.00;;;24.63;;
57824;SDS011;43912;44.188;21.094;2022-11-25T07:08:28;23.77;;;20.88;;
57824;SDS011;43912;44.188;21.094;2022-11-25T07:10:54;22.95;;;20.48;;
57824;SDS011;43912;44.188;21.094;2022-11-25T07:13:20;26.55;;;22.60;;
57824;SDS011;43912;44.188;21.094;2022-11-25T07:15:46;27.25;;;20.17;;
57824;SDS011;43912;44.188;21.094;2022-11-25T07:18:13;32.28;;;20.38;;
57824;SDS011;43912;44.188;21.094;2022-11-25T07:20:39;33.58;;;24.10;;
57824;SDS011;43912;44.188;21.094;2022-11-25T07:23:05;32.03;;;23.20;;
57824;SDS011;43912;44.188;21.094;2022-11-25T07:25:31;25.85;;;18.40;;
57824;SDS011;43912;44.188;21.094;2022-11-25T07:27:57;23.15;;;19.15;;
57824;SDS011;43912;44.188;21.094;2022-11-25T07:30:24;26.02;;;19.17;;
57824;SDS011;43912;44.188;21.094;2022-11-25T07:32:50;23.45;;;17.77;;
57824;SDS011;43912;44.188;21.094;2022-11-25T07:35:16;25.27;;;19.25;;
57824;SDS011;43912;44.188;21.094;2022-11-25T07:37:42;24.45;;;19.70;;
57824;SDS011;43912;44.188;21.094;2022-11-25T07:40:08;21.98;;;18.45;;
57824;SDS011;43912;44.188;21.094;2022-11-25T07:42:34;25.98;;;19.35;;
57824;SDS011;43912;44.188;21.094;2022-11-25T07:45:00;27.35;;;22.35;;
57824;SDS011;43912;44.188;21.094;2022-11-25T07:47:26;251.60;;;131.38;;
57824;SDS011;43912;44.188;21.094;2022-11-25T07:49:52;827.58;;;381.88;;
57824;SDS011;43912;44.188;21.094;2022-11-25T07:52:18;869.92;;;385.25;;
57824;SDS011;43912;44.188;21.094;2022-11-25T07:54:45;289.80;;;129.93;;
57824;SDS011;43912;44.188;21.094;2022-11-25T07:57:11;36.38;;;25.63;;
57824;SDS011;43912;44.188;21.094;2022-11-25T07:59:37;62.28;;;43.42;;
57824;SDS011;43912;44.188;21.094;2022-11-25T08:02:05;46.97;;;33.58;;
57824;SDS011;43912;44.188;21.094;2022-11-25T08:04:31;43.22;;;33.67;;
57824;SDS011;43912;44.188;21.094;2022-11-25T08:06:57;25.00;;;21.95;;
57824;SDS011;43912;44.188;21.094;2022-11-25T08:09:23;25.75;;;21.15;;
57824;SDS011;43912;44.188;21.094;2022-11-25T08:11:50;22.95;;;19.70;;
57824;SDS011;43912;44.188;21.094;2022-11-25T08:14:16;48.75;;;42.22;;
57824;SDS011;43912;44.188;21.094;2022-11-25T08:16:42;21.73;;;17.88;;
57824;SDS011;43912;44.188;21.094;2022-11-25T08:19:10;22.15;;;18.45;;
57824;SDS011;43912;44.188;21.094;2022-11-25T08:21:37;18.90;;;13.82;;
57824;SDS011;43912;44.188;21.094;2022-11-25T08:24:04;33.72;;;30.13;;
57824;SDS011;43912;44.188;21.094;2022-11-25T08:26:31;29.40;;;26.02;;
57824;SDS011;43912;44.188;21.094;2022-11-25T08:29:00;57.20;;;50.85;;
57824;SDS011;43912;44.188;21.094;2022-11-25T08:31:29;20.65;;;17.63;;
57824;SDS011;43912;44.188;21.094;2022-11-25T08:33:55;94.85;;;84.57;;
57824;SDS011;43912;44.188;21.094;2022-11-25T08:36:22;34.70;;;30.65;;
57824;SDS011;43912;44.188;21.094;2022-11-25T08:38:49;27.30;;;23.70;;
57824;SDS011;43912;44.188;21.094;2022-11-25T08:41:18;30.40;;;26.58;;
57824;SDS011;43912;44.188;21.094;2022-11-25T08:43:44;27.58;;;22.15;;
57824;SDS011;43912;44.188;21.094;2022-11-25T08:46:12;24.90;;;19.45;;
57824;SDS011;43912;44.188;21.094;2022-11-25T08:48:38;32.75;;;29.25;;
57824;SDS011;43912;44.188;21.094;2022-11-25T08:51:09;54.75;;;49.15;;
57824;SDS011;43912;44.188;21.094;2022-11-25T08:53:36;40.70;;;34.95;;
57824;SDS011;43912;44.188;21.094;2022-11-25T08:56:03;32.25;;;27.02;;
57824;SDS011;43912;44.188;21.094;2022-11-25T08:58:29;31.40;;;26.23;;
57824;SDS011;43912;44.188;21.094;2022-11-25T09:00:55;22.25;;;17.92;;
57824;SDS011;43912;44.188;21.094;2022-11-25T09:03:21;19.35;;;16.63;;
57824;SDS011;43912;44.188;21.094;2022-11-25T09:05:47;22.15;;;19.95;;
57824;SDS011;43912;44.188;21.094;2022-11-25T09:08:14;29.65;;;26.52;;
57824;SDS011;43912;44.188;21.094;2022-11-25T09:10:40;13.80;;;10.50;;
57824;SDS011;43912;44.188;21.094;2022-11-25T09:13:06;26.23;;;23.00;;
57824;SDS011;43912;44.188;21.094;2022-11-25T09:15:34;24.65;;;20.73;;
57824;SDS011;43912;44.188;21.094;2022-11-25T09:18:01;20.98;;;18.15;;
57824;SDS011;43912;44.188;21.094;2022-11-25T09:20:28;20.95;;;18.38;;
57824;SDS011;43912;44.188;21.094;2022-11-25T09:22:55;16.40;;;14.45;;
57824;SDS011;43912;44.188;21.094;2022-11-25T09:25:23;70.18;;;55.38;;
57824;SDS011;43912;44.188;21.094;2022-11-25T09:27:49;130.13;;;100.25;;
57824;SDS011;43912;44.188;21.094;2022-11-25T09:30:15;97.75;;;76.82;;
57824;SDS011;43912;44.188;21.094;2022-11-25T09:32:41;56.85;;;44.80;;
57824;SDS011;43912;44.188;21.094;2022-11-25T09:35:08;79.82;;;60.88;;
57824;SDS011;43912;44.188;21.094;2022-11-25T09:37:34;82.97;;;65.60;;
57824;SDS011;43912;44.188;21.094;2022-11-25T09:40:00;28.55;;;22.85;;
57824;SDS011;43912;44.188;21.094;2022-11-25T09:53:25;20.23;;;16.35;;
57824;SDS011;43912;44.188;21.094;2022-11-25T09:55:58;33.05;;;27.88;;
57824;SDS011;43912;44.188;21.094;2022-11-25T09:58:34;29.83;;;24.60;;
57824;SDS011;43912;44.188;21.094;2022-11-25T10:01:03;25.48;;;22.52;;
57824;SDS011;43912;44.188;21.094;2022-11-25T10:08:47;20.38;;;16.45;;
57824;SDS011;43912;44.188;21.094;2022-11-25T10:13:54;33.03;;;29.88;;
57824;SDS011;43912;44.188;21.094;2022-11-25T10:19:21;16.90;;;12.70;;
57824;SDS011;43912;44.188;21.094;2022-11-25T10:21:48;16.13;;;14.52;;
57824;SDS011;43912;44.188;21.094;2022-11-25T10:24:15;12.65;;;11.05;;
57824;SDS011;43912;44.188;21.094;2022-11-25T10:26:46;15.65;;;13.95;;
57824;SDS011;43912;44.188;21.094;2022-11-25T10:31:42;18.35;;;16.38;;
57824;SDS011;43912;44.188;21.094;2022-11-25T10:34:14;11.93;;;8.52;;
57824;SDS011;43912;44.188;21.094;2022-11-25T10:36:45;12.77;;;11.48;;
57824;SDS011;43912;44.188;21.094;2022-11-25T10:39:14;11.55;;;10.35;;
57824;SDS011;43912;44.188;21.094;2022-11-25T10:42:02;13.63;;;10.60;;
57824;SDS011;43912;44.188;21.094;2022-11-25T10:49:37;9.85;;;6.90;;
57824;SDS011;43912;44.188;21.094;2022-11-25T10:52:11;11.82;;;9.27;;
57824;SDS011;43912;44.188;21.094;2022-11-25T10:54:37;11.05;;;7.82;;
57824;SDS011;43912;44.188;21.094;2022-11-25T10:57:15;11.15;;;9.40;;
57824;SDS011;43912;44.188;21.094;2022-11-25T10:59:41;12.02;;;7.15;;
57824;SDS011;43912;44.188;21.094;2022-11-25T11:04:53;14.82;;;11.73;;
57824;SDS011;43912;44.188;21.094;2022-11-25T11:07:21;18.30;;;11.75;;
57824;SDS011;43912;44.188;21.094;2022-11-25T11:09:47;19.15;;;16.05;;
57824;SDS011;43912;44.188;21.094;2022-11-25T11:12:17;13.75;;;9.80;;
57824;SDS011;43912;44.188;21.094;2022-11-25T11:14:44;19.20;;;14.80;;
57824;SDS011;43912;44.188;21.094;2022-11-25T11:22:32;16.00;;;9.32;;
57824;SDS011;43912;44.188;21.094;2022-11-25T11:25:23;10.02;;;7.32;;
57824;SDS011;43912;44.188;21.094;2022-11-25T11:27:51;15.85;;;9.85;;
57824;SDS011;43912;44.188;21.094;2022-11-25T11:30:18;14.40;;;11.35;;
57824;SDS011;43912;44.188;21.094;2022-11-25T11:32:53;16.05;;;9.57;;
57824;SDS011;43912;44.188;21.094;2022-11-25T11:38:07;13.13;;;7.22;;
57824;SDS011;43912;44.188;21.094;2022-11-25T11:40:43;16.60;;;10.93;;
57824;SDS011;43912;44.188;21.094;2022-11-25T11:43:18;10.20;;;5.18;;
57824;SDS011;43912;44.188;21.094;2022-11-25T11:46:03;11.48;;;5.68;;
57824;SDS011;43912;44.188;21.094;2022-11-25T11:48:38;11.10;;;5.75;;
57824;SDS011;43912;44.188;21.094;2022-11-25T11:51:15;10.15;;;6.00;;
57824;SDS011;43912;44.188;21.094;2022-11-25T11:56:24;11.73;;;5.88;;
57824;SDS011;43912;44.188;21.094;2022-11-25T11:59:00;11.38;;;6.30;;
57824;SDS011;43912;44.188;21.094;2022-11-25T12:07:01;11.23;;;6.75;;
57824;SDS011;43912;44.188;21.094;2022-11-25T12:09:28;12.07;;;7.88;;
57824;SDS011;43912;44.188;21.094;2022-11-25T12:11:58;10.25;;;7.40;;
57824;SDS011;43912;44.188;21.094;2022-11-25T12:14:41;10.15;;;7.20;;
57824;SDS011;43912;44.188;21.094;2022-11-25T12:17:31;12.73;;;8.10;;
57824;SDS011;43912;44.188;21.094;2022-11-25T12:19:55;10.30;;;7.55;;
57824;SDS011;43912;44.188;21.094;2022-11-25T12:22:31;9.32;;;7.35;;
57824;SDS011;43912;44.188;21.094;2022-11-25T12:25:07;9.38;;;7.20;;
57824;SDS011;43912;44.188;21.094;2022-11-25T12:27:37;8.48;;;6.40;;
57824;SDS011;43912;44.188;21.094;2022-11-25T12:35:01;15.95;;;14.30;;
57824;SDS011;43912;44.188;21.094;2022-11-25T12:37:33;20.23;;;18.33;;
57824;SDS011;43912;44.188;21.094;2022-11-25T12:40:07;10.67;;;9.50;;
57824;SDS011;43912;44.188;21.094;2022-11-25T12:42:36;9.05;;;6.45;;
57824;SDS011;43912;44.188;21.094;2022-11-25T12:45:06;11.82;;;8.68;;
57824;SDS011;43912;44.188;21.094;2022-11-25T12:47:34;18.70;;;16.80;;
57824;SDS011;43912;44.188;21.094;2022-11-25T12:50:00;21.63;;;19.42;;
57824;SDS011;43912;44.188;21.094;2022-11-25T13:16:15;13.07;;;10.63;;
57824;SDS011;43912;44.188;21.094;2022-11-25T13:18:42;14.73;;;13.23;;
57824;SDS011;43912;44.188;21.094;2022-11-25T13:21:10;15.10;;;13.10;;
57824;SDS011;43912;44.188;21.094;2022-11-25T13:23:41;16.35;;;9.95;;
57824;SDS011;43912;44.188;21.094;2022-11-25T13:28:54;14.18;;;10.80;;
57824;SDS011;43912;44.188;21.094;2022-11-25T13:31:22;12.13;;;10.40;;
57824;SDS011;43912;44.188;21.094;2022-11-25T13:43:53;27.05;;;15.82;;
57824;SDS011;43912;44.188;21.094;2022-11-25T13:48:54;13.10;;;9.80;;
57824;SDS011;43912;44.188;21.094;2022-11-25T13:51:21;19.77;;;16.38;;
57824;SDS011;43912;44.188;21.094;2022-11-25T13:54:23;15.15;;;13.60;;
57824;SDS011;43912;44.188;21.094;2022-11-25T13:56:40;21.25;;;17.50;;
57824;SDS011;43912;44.188;21.094;2022-11-25T14:04:09;12.40;;;8.32;;
57824;SDS011;43912;44.188;21.094;2022-11-25T14:22:01;17.05;;;11.57;;
57824;SDS011;43912;44.188;21.094;2022-11-25T14:24:29;14.68;;;10.20;;
57824;SDS011;43912;44.188;21.094;2022-11-25T14:26:58;12.18;;;8.82;;
57824;SDS011;43912;44.188;21.094;2022-11-25T14:29:29;15.55;;;10.75;;
57824;SDS011;43912;44.188;21.094;2022-11-25T14:32:01;15.43;;;10.95;;
57824;SDS011;43912;44.188;21.094;2022-11-25T14:37:04;13.50;;;8.40;;
57824;SDS011;43912;44.188;21.094;2022-11-25T14:39:37;16.23;;;10.40;;
57824;SDS011;43912;44.188;21.094;2022-11-25T14:42:08;14.40;;;9.57;;
57824;SDS011;43912;44.188;21.094;2022-11-25T14:44:39;14.57;;;10.40;;
57824;SDS011;43912;44.188;21.094;2022-11-25T14:47:09;22.58;;;14.15;;
57824;SDS011;43912;44.188;21.094;2022-11-25T14:49:49;25.95;;;17.50;;
57824;SDS011;43912;44.188;21.094;2022-11-25T14:52:17;39.05;;;24.63;;
57824;SDS011;43912;44.188;21.094;2022-11-25T14:54:44;39.08;;;23.67;;
57824;SDS011;43912;44.188;21.094;2022-11-25T14:57:10;32.95;;;23.00;;
57824;SDS011;43912;44.188;21.094;2022-11-25T14:59:37;38.33;;;22.67;;
57824;SDS011;43912;44.188;21.094;2022-11-25T15:02:03;30.88;;;22.70;;
57824;SDS011;43912;44.188;21.094;2022-11-25T15:04:29;39.65;;;30.45;;
57824;SDS011;43912;44.188;21.094;2022-11-25T15:06:56;31.33;;;25.65;;
57824;SDS011;43912;44.188;21.094;2022-11-25T15:09:35;39.15;;;28.38;;
57824;SDS011;43912;44.188;21.094;2022-11-25T15:12:05;31.38;;;24.50;;
57824;SDS011;43912;44.188;21.094;2022-11-25T15:14:33;34.17;;;28.10;;
57824;SDS011;43912;44.188;21.094;2022-11-25T15:17:05;35.13;;;30.92;;
57824;SDS011;43912;44.188;21.094;2022-11-25T15:19:32;20.38;;;15.05;;
57824;SDS011;43912;44.188;21.094;2022-11-25T15:22:03;30.02;;;22.45;;
57824;SDS011;43912;44.188;21.094;2022-11-25T15:24:31;52.95;;;36.80;;
57824;SDS011;43912;44.188;21.094;2022-11-25T15:26:58;83.45;;;60.92;;
57824;SDS011;43912;44.188;21.094;2022-11-25T15:29:26;44.67;;;34.25;;
57824;SDS011;43912;44.188;21.094;2022-11-25T15:31:53;45.67;;;37.85;;
57824;SDS011;43912;44.188;21.094;2022-11-25T15:34:20;36.33;;;28.55;;
57824;SDS011;43912;44.188;21.094;2022-11-25T15:36:46;40.58;;;29.00;;
57824;SDS011;43912;44.188;21.094;2022-11-25T15:39:22;51.95;;;44.58;;
57824;SDS011;43912;44.188;21.094;2022-11-25T15:41:49;74.18;;;48.22;;
57824;SDS011;43912;44.188;21.094;2022-11-25T15:44:25;45.45;;;34.42;;
57824;SDS011;43912;44.188;21.094;2022-11-25T15:46:54;49.88;;;36.45;;
57824;SDS011;43912;44.188;21.094;2022-11-25T15:49:22;44.58;;;36.33;;
57824;SDS011;43912;44.188;21.094;2022-11-25T15:51:50;51.17;;;40.45;;
57824;SDS011;43912;44.188;21.094;2022-11-25T15:54:21;44.75;;;36.63;;
57824;SDS011;43912;44.188;21.094;2022-11-25T15:56:51;34.30;;;23.88;;
57824;SDS011;43912;44.188;21.094;2022-11-25T16:02:26;54.00;;;43.13;;
57824;SDS011;43912;44.188;21.094;2022-11-25T16:04:50;48.67;;;37.58;;
57824;SDS011;43912;44.188;21.094;2022-11-25T16:07:21;55.05;;;46.10;;
57824;SDS011;43912;44.188;21.094;2022-11-25T16:09:49;55.10;;;46.00;;
57824;SDS011;43912;44.188;21.094;2022-11-25T16:12:18;40.72;;;35.55;;
57824;SDS011;43912;44.188;21.094;2022-11-25T16:14:44;33.42;;;28.25;;
57824;SDS011;43912;44.188;21.094;2022-11-25T16:17:11;30.38;;;27.08;;
57824;SDS011;43912;44.188;21.094;2022-11-25T16:19:38;28.17;;;24.88;;
57824;SDS011;43912;44.188;21.094;2022-11-25T16:22:05;25.48;;;20.17;;
57824;SDS011;43912;44.188;21.094;2022-11-25T16:24:45;23.77;;;17.25;;